Time;durP1;ratioP1;P1;durP2;ratioP2;P2;SDS_P1;SDS_P2;PMS_P1;PMS_P2;Temp;Humidity;BMP_temperature;BMP_pressure;BME280_temperature;BME280_humidity;BME280_pressure;Samples;Min_cycle;Max_cycle;Signal;HPM_P1;HPM_P2
2021/01/05 00:00:33;;;;;;;23.95;14.50;;;;;;;9.41;65.61;99154.75;4326299;33;34081;-83
2021/01/05 00:03:01;;;;;;;22.17;13.40;;;;;;;9.47;65.28;99148.31;4332146;33;34167;-83
2021/01/05 00:05:29;;;;;;;22.60;14.95;;;;;;;9.30;65.80;99157.03;4336009;33;33599;-83
2021/01/05 00:07:56;;;;;;;24.15;15.43;;;;;;;9.45;65.42;99151.03;4327157;33;33576;-83
2021/01/05 00:10:23;;;;;;;21.85;14.90;;;;;;;9.27;65.80;99151.94;4320020;33;35913;-83
2021/01/05 00:12:50;;;;;;;23.17;15.13;;;;;;;9.30;65.63;99157.03;4344536;33;34644;-83
2021/01/05 00:15:18;;;;;;;24.08;16.73;;;;;;;8.94;67.07;99157.91;4324598;32;34574;-83
2021/01/05 00:17:45;;;;;;;33.08;16.80;;;;;;;8.87;67.23;99148.56;4355717;32;32916;-83
2021/01/05 00:20:22;;;;;;;24.12;15.88;;;;;;;9.01;66.81;99150.53;4333111;32;33614;-83
2021/01/05 00:22:50;;;;;;;26.10;17.05;;;;;;;9.16;66.47;99149.84;4354707;32;34713;-83
2021/01/05 00:25:19;;;;;;;24.37;16.12;;;;;;;9.20;66.18;99154.00;4337140;32;33669;-83
2021/01/05 00:27:46;;;;;;;27.95;17.67;;;;;;;9.28;65.78;99153.63;4356776;32;32775;-83
2021/01/05 00:30:20;;;;;;;24.83;15.55;;;;;;;8.80;67.08;99157.69;4330204;32;33480;-83
2021/01/05 00:32:49;;;;;;;24.87;16.05;;;;;;;9.17;66.16;99155.94;4332462;32;35633;-83
2021/01/05 00:35:23;;;;;;;24.58;16.80;;;;;;;9.07;66.53;99159.94;4330488;32;34473;-83
2021/01/05 00:37:51;;;;;;;25.35;17.23;;;;;;;9.11;66.35;99156.22;4335335;33;33335;-84
2021/01/05 00:40:22;;;;;;;22.17;15.60;;;;;;;8.98;66.48;99153.34;4328807;32;32471;-83
2021/01/05 00:42:49;;;;;;;22.87;15.60;;;;;;;8.97;66.47;99155.13;4345523;32;32670;-83
2021/01/05 00:45:28;;;;;;;21.85;15.30;;;;;;;9.01;66.41;99161.06;4341305;32;34265;-83
2021/01/05 00:47:57;;;;;;;21.10;14.70;;;;;;;8.85;66.99;99153.06;4329540;33;34244;-83
2021/01/05 00:50:24;;;;;;;21.08;14.82;;;;;;;9.15;65.94;99163.91;4329823;33;34012;-83
2021/01/05 00:52:52;;;;;;;23.08;14.48;;;;;;;8.92;66.74;99158.88;4324852;32;35276;-83
2021/01/05 00:55:21;;;;;;;22.00;15.30;;;;;;;9.20;65.93;99154.00;4331473;32;32423;-82
2021/01/05 00:57:48;;;;;;;31.45;16.70;;;;;;;9.16;65.92;99164.75;4337879;32;33118;-83
2021/01/05 01:00:27;;;;;;;24.80;15.45;;;;;;;8.68;67.45;99169.63;4355612;32;34898;-83
2021/01/05 01:02:55;;;;;;;23.27;14.57;;;;;;;8.85;66.77;99176.75;4341891;32;33525;-83
2021/01/05 01:05:24;;;;;;;20.55;14.65;;;;;;;8.96;66.41;99168.34;4331869;32;34546;-83
2021/01/05 01:07:51;;;;;;;21.20;14.70;;;;;;;9.37;64.95;99166.38;4340697;32;34216;-83
2021/01/05 01:10:20;;;;;;;18.40;13.35;;;;;;;9.02;66.24;99168.06;4348414;32;34818;-83
2021/01/05 01:12:48;;;;;;;25.88;15.35;;;;;;;9.18;65.60;99174.31;4340501;33;33692;-83
2021/01/05 01:15:16;;;;;;;24.73;14.40;;;;;;;9.04;66.20;99176.75;4332940;32;32720;-83
2021/01/05 01:17:44;;;;;;;23.00;14.63;;;;;;;9.15;65.86;99168.31;4331323;32;32252;-83
2021/01/05 01:20:14;;;;;;;26.27;15.88;;;;;;;9.20;65.73;99171.59;4343721;32;34547;-83
2021/01/05 01:22:47;;;;;;;21.52;14.43;;;;;;;9.07;66.23;99166.06;4344589;32;34026;-85
2021/01/05 01:25:15;;;;;;;23.12;14.87;;;;;;;9.05;66.36;99161.78;4357492;32;33662;-84
2021/01/05 01:27:42;;;;;;;23.23;15.55;;;;;;;9.22;65.66;99159.22;4352777;32;34549;-85
2021/01/05 01:30:11;;;;;;;23.87;15.02;;;;;;;9.49;64.64;99157.88;4342694;33;33356;-85
2021/01/05 01:32:41;;;;;;;23.23;14.73;;;;;;;9.16;65.54;99155.09;4341831;32;34143;-85
2021/01/05 01:35:10;;;;;;;22.80;14.98;;;;;;;9.31;65.10;99156.13;4344635;32;33635;-85
2021/01/05 01:37:38;;;;;;;19.12;14.02;;;;;;;9.20;65.36;99158.41;4341374;32;35097;-84
2021/01/05 01:40:07;;;;;;;22.15;13.40;;;;;;;9.30;64.96;99151.78;4352607;32;34624;-85
2021/01/05 01:42:35;;;;;;;19.87;14.35;;;;;;;9.27;65.22;99151.94;4338212;32;33646;-85
2021/01/05 01:45:05;;;;;;;21.27;13.80;;;;;;;9.14;65.55;99156.09;4342105;32;34527;-85
2021/01/05 01:47:36;;;;;;;20.75;13.77;;;;;;;9.27;65.11;99151.94;4331112;33;34914;-85
2021/01/05 01:50:08;;;;;;;19.70;12.95;;;;;;;9.31;64.94;99148.22;4321419;33;35282;-84
2021/01/05 01:52:52;;;;;;;22.57;13.37;;;;;;;9.22;65.18;99143.41;4313458;33;34615;-84
2021/01/05 01:55:38;;;;;;;20.75;14.87;;;;;;;9.19;65.14;99138.28;4344224;32;35528;-84
2021/01/05 01:58:15;;;;;;;24.40;13.93;;;;;;;9.05;65.68;99138.94;4363457;32;33275;-86
2021/01/05 02:01:06;;;;;;;19.23;12.35;;;;;;;9.20;64.79;99134.72;4345981;33;33352;-86
2021/01/05 02:03:44;;;;;;;20.50;13.18;;;;;;;9.29;64.75;99134.25;4340821;32;34415;-85
2021/01/05 02:06:29;;;;;;;18.80;12.32;;;;;;;9.49;63.73;99126.25;4344154;33;33620;-85
2021/01/05 02:09:15;;;;;;;19.15;12.88;;;;;;;9.27;64.83;99120.31;4344267;33;33284;-85
2021/01/05 02:12:12;;;;;;;19.27;12.65;;;;;;;9.59;63.48;99115.22;4343714;33;34290;-85
2021/01/05 02:14:52;;;;;;;17.23;12.05;;;;;;;9.17;65.07;99108.53;4330966;32;36191;-84
2021/01/05 02:17:57;;;;;;;20.88;13.43;;;;;;;9.47;63.74;99114.91;4358955;32;34662;-85
2021/01/05 02:20:36;;;;;;;21.80;11.85;;;;;;;9.51;63.47;99114.78;4360648;32;33216;-83
2021/01/05 02:23:26;;;;;;;18.02;12.00;;;;;;;9.25;64.25;99111.63;4328099;33;34619;-83
2021/01/05 02:26:00;;;;;;;19.50;13.10;;;;;;;9.08;65.00;99098.44;4351440;32;35185;-83
2021/01/05 02:28:34;;;;;;;20.48;13.82;;;;;;;8.84;65.66;99093.44;4328487;33;33803;-83
2021/01/05 02:31:12;;;;;;;20.48;13.95;;;;;;;8.70;66.47;99090.62;4331969;32;33495;-84
2021/01/05 02:34:24;;;;;;;20.42;12.50;;;;;;;8.98;65.26;99090.16;4333991;32;33898;-84
2021/01/05 02:37:14;;;;;;;21.90;13.85;;;;;;;8.83;65.87;99093.50;4317114;33;33412;-84
2021/01/05 02:40:35;;;;;;;21.30;15.18;;;;;;;8.84;65.78;99085.53;4283844;33;34642;-84
2021/01/05 02:43:49;;;;;;;19.92;13.00;;;;;;;8.71;66.15;99081.78;4245421;33;35315;-84
2021/01/05 02:46:51;;;;;;;23.30;14.63;;;;;;;8.76;66.07;99079.78;4226338;33;34072;-84
2021/01/05 02:49:44;;;;;;;24.37;14.40;;;;;;;8.50;66.84;99081.03;4185601;34;33484;-84
2021/01/05 02:53:07;;;;;;;23.17;14.95;;;;;;;8.55;66.76;99080.81;4176207;34;33373;-84
2021/01/05 02:56:26;;;;;;;24.95;13.80;;;;;;;8.66;66.60;99081.16;4175531;34;32970;-84
2021/01/05 02:58:58;;;;;;;26.08;14.35;;;;;;;8.59;66.81;99080.59;4171112;34;33315;-83
2021/01/05 03:02:14;;;;;;;20.42;13.30;;;;;;;8.96;65.48;99076.19;4144086;34;34948;-84
2021/01/05 03:04:40;;;;;;;21.77;14.75;;;;;;;8.84;65.68;99067.12;4143964;34;33874;-84
2021/01/05 03:07:12;;;;;;;23.17;14.77;;;;;;;8.49;66.89;99062.66;4148389;34;33299;-85
2021/01/05 03:10:09;;;;;;;28.98;16.42;;;;;;;8.92;65.55;99067.56;4154008;34;34485;-83
2021/01/05 03:13:32;;;;;;;30.37;19.33;;;;;;;8.72;66.29;99067.69;4161143;34;34488;-83
2021/01/05 03:16:08;;;;;;;30.80;19.02;;;;;;;8.78;66.04;99062.13;4153053;34;33027;-83
2021/01/05 03:19:03;;;;;;;33.70;20.90;;;;;;;8.72;66.34;99059.78;4139293;34;35587;-83
2021/01/05 03:21:51;;;;;;;34.10;19.75;;;;;;;8.44;67.48;99063.72;4149567;34;33783;-83
2021/01/05 03:24:33;;;;;;;39.78;22.23;;;;;;;8.69;66.36;99052.06;4117258;34;33613;-83
2021/01/05 03:27:19;;;;;;;37.25;21.60;;;;;;;8.75;66.13;99057.03;4111031;34;33680;-83
2021/01/05 03:30:28;;;;;;;38.70;23.12;;;;;;;8.53;67.07;99051.06;4097156;34;35564;-83
2021/01/05 03:33:11;;;;;;;42.62;22.23;;;;;;;8.48;67.39;99053.06;4114891;34;34258;-83
2021/01/05 03:36:04;;;;;;;40.05;22.85;;;;;;;8.48;67.58;99048.66;4111749;34;33512;-82
2021/01/05 03:38:30;;;;;;;41.63;22.77;;;;;;;8.19;68.67;99056.09;4103452;34;33968;-83
2021/01/05 03:41:15;;;;;;;41.05;22.80;;;;;;;8.32;67.97;99051.13;4094751;35;33297;-83
2021/01/05 03:43:42;;;;;;;37.67;22.48;;;;;;;8.37;67.72;99049.16;4112016;34;32707;-84
2021/01/05 03:46:10;;;;;;;39.85;23.52;;;;;;;8.38;67.45;99056.13;4128135;34;34707;-83
2021/01/05 03:48:53;;;;;;;43.20;23.23;;;;;;;8.43;67.38;99053.28;4108100;34;33651;-83
2021/01/05 03:51:35;;;;;;;40.45;23.55;;;;;;;8.48;67.29;99050.44;4104892;34;33285;-83
2021/01/05 03:54:05;;;;;;;39.42;23.48;;;;;;;8.72;66.59;99046.63;4097516;34;34157;-83
2021/01/05 03:56:40;;;;;;;48.28;24.92;;;;;;;7.76;69.87;99049.28;4060240;35;34520;-83
2021/01/05 03:59:28;;;;;;;40.95;23.08;;;;;;;8.39;67.83;99054.34;4098154;34;34492;-83
2021/01/05 04:01:54;;;;;;;43.65;25.25;;;;;;;8.29;68.00;99046.00;4099498;35;33294;-84
2021/01/05 04:04:21;;;;;;;42.25;22.67;;;;;;;7.85;69.72;99051.50;4108362;34;34505;-83
2021/01/05 04:06:48;;;;;;;43.63;22.37;;;;;;;7.94;69.35;99045.84;4124787;34;33338;-83
2021/01/05 04:09:15;;;;;;;41.03;24.67;;;;;;;7.41;71.46;99045.56;4112339;34;34253;-83
2021/01/05 04:11:57;;;;;;;47.35;26.40;;;;;;;7.67;70.22;99039.19;4113653;34;34482;-83
2021/01/05 04:14:25;;;;;;;45.40;25.12;;;;;;;7.75;70.52;99049.38;4111371;34;33601;-82
2021/01/05 04:16:52;;;;;;;45.00;25.60;;;;;;;7.88;70.22;99053.12;4136158;34;34426;-83
2021/01/05 04:19:19;;;;;;;49.72;26.42;;;;;;;7.75;70.65;99055.47;4137469;34;33507;-83
2021/01/05 04:21:50;;;;;;;49.17;26.20;;;;;;;7.75;70.64;99044.97;4158985;34;33600;-83
2021/01/05 04:24:18;;;;;;;51.03;27.08;;;;;;;7.71;70.72;99038.13;4173360;34;33679;-83
2021/01/05 04:26:46;;;;;;;44.78;24.70;;;;;;;7.41;72.02;99042.94;4202007;34;34776;-83
2021/01/05 04:29:13;;;;;;;46.97;25.75;;;;;;;7.90;70.17;99039.00;4245422;33;33875;-83
2021/01/05 04:31:42;;;;;;;51.00;27.00;;;;;;;7.80;70.50;99048.22;4271502;33;33469;-83
2021/01/05 04:34:12;;;;;;;46.22;25.67;;;;;;;7.58;71.37;99045.69;4275998;33;34654;-83
2021/01/05 04:36:39;;;;;;;46.85;25.60;;;;;;;7.74;71.12;99050.25;4305030;32;35156;-83
2021/01/05 04:39:07;;;;;;;48.67;26.90;;;;;;;8.01;69.91;99059.56;4329215;32;34601;-83
2021/01/05 04:41:59;;;;;;;48.60;24.12;;;;;;;7.99;70.05;99057.94;4355689;32;33301;-83
2021/01/05 04:44:28;;;;;;;45.67;25.17;;;;;;;8.42;68.30;99064.75;4348987;32;33637;-82
2021/01/05 04:47:03;;;;;;;46.42;25.23;;;;;;;8.25;68.84;99054.94;4348878;32;33643;-83
2021/01/05 04:49:49;;;;;;;46.80;24.90;;;;;;;7.78;70.81;99065.81;4342435;33;33092;-83
2021/01/05 04:52:19;;;;;;;44.67;25.52;;;;;;;7.99;70.35;99073.72;4352465;32;33391;-83
2021/01/05 04:54:59;;;;;;;43.75;23.20;;;;;;;7.87;70.31;99080.34;4352790;32;33184;-83
2021/01/05 04:57:28;;;;;;;45.50;23.70;;;;;;;8.39;68.58;99067.50;4358913;32;34851;-82
2021/01/05 05:00:28;;;;;;;41.95;22.85;;;;;;;8.49;67.73;99070.56;4348715;32;33857;-83
2021/01/05 05:03:10;;;;;;;51.80;25.37;;;;;;;8.28;67.88;99086.37;4354087;32;32995;-83
2021/01/05 05:06:37;;;;;;;51.37;24.63;;;;;;;8.06;68.99;99080.38;4344021;32;33613;-83
2021/01/05 05:09:33;;;;;;;44.60;24.75;;;;;;;8.32;67.98;99081.84;4291137;33;34713;-83
2021/01/05 05:12:35;;;;;;;45.08;23.17;;;;;;;7.85;69.44;99077.78;4304873;33;34537;-83
2021/01/05 05:15:04;;;;;;;47.28;24.40;;;;;;;8.18;68.27;99077.22;4308842;33;32902;-83
2021/01/05 05:17:59;;;;;;;47.20;25.80;;;;;;;7.95;68.98;99080.88;4280629;33;34340;-83
2021/01/05 05:20:34;;;;;;;49.42;25.60;;;;;;;7.78;69.42;99073.72;4269934;33;34852;-83
2021/01/05 05:23:13;;;;;;;48.25;26.08;;;;;;;7.87;69.01;99075.94;4286560;33;33301;-82
2021/01/05 05:25:48;;;;;;;49.22;25.33;;;;;;;7.41;70.79;99072.69;4287155;33;34104;-83
2021/01/05 05:28:21;;;;;;;52.28;24.30;;;;;;;7.48;70.58;99072.44;4300720;33;33520;-84
2021/01/05 05:30:48;;;;;;;49.08;23.92;;;;;;;7.46;70.47;99079.53;4280919;33;35533;-84
2021/01/05 05:33:25;;;;;;;43.17;24.75;;;;;;;7.60;69.62;99077.16;4288507;33;34802;-83
2021/01/05 05:36:10;;;;;;;48.63;24.10;;;;;;;7.40;70.52;99078.00;4288450;33;33499;-83
2021/01/05 05:39:02;;;;;;;48.35;25.12;;;;;;;7.26;70.98;99073.31;4285868;33;33537;-84
2021/01/05 05:41:57;;;;;;;43.95;24.42;;;;;;;7.32;70.83;99080.97;4333136;33;34476;-84
2021/01/05 05:44:37;;;;;;;46.03;23.67;;;;;;;7.33;70.66;99085.28;4329562;33;34523;-85
2021/01/05 05:47:23;;;;;;;48.80;24.37;;;;;;;7.64;69.38;99084.84;4343099;33;34168;-84
2021/01/05 05:50:06;;;;;;;48.87;24.63;;;;;;;7.63;69.41;99084.91;4346874;33;34190;-83
2021/01/05 05:52:58;;;;;;;44.30;23.52;;;;;;;7.52;69.71;99085.38;4342396;32;34798;-83
2021/01/05 05:55:51;;;;;;;42.17;20.95;;;;;;;7.55;69.68;99089.62;4334761;33;33937;-83
2021/01/05 05:58:23;;;;;;;50.97;24.63;;;;;;;7.98;67.86;99093.03;4276662;33;33320;-83
2021/01/05 06:00:52;;;;;;;41.97;21.35;;;;;;;7.64;68.90;99095.34;4280324;33;33306;-83
2021/01/05 06:03:23;;;;;;;44.58;25.00;;;;;;;8.15;67.07;99096.59;4278894;33;34865;-83
2021/01/05 06:05:50;;;;;;;47.92;24.87;;;;;;;7.83;68.09;99095.41;4275259;33;34225;-83
2021/01/05 06:08:19;;;;;;;47.15;25.12;;;;;;;7.80;67.99;99097.31;4267081;33;32382;-83
2021/01/05 06:10:47;;;;;;;46.25;24.50;;;;;;;8.08;67.33;99096.97;4279143;33;34549;-83
2021/01/05 06:13:14;;;;;;;47.80;24.52;;;;;;;8.11;67.05;99094.16;4283808;33;34586;-83
2021/01/05 06:15:41;;;;;;;44.95;23.15;;;;;;;8.02;67.23;99089.31;4267251;33;102401;-84
2021/01/05 06:18:11;;;;;;;45.90;23.17;;;;;;;8.34;66.08;99103.66;4302375;33;32863;-84
2021/01/05 06:20:39;;;;;;;49.10;24.37;;;;;;;8.34;65.71;99104.50;4302490;33;34842;-84
2021/01/05 06:23:06;;;;;;;40.75;22.65;;;;;;;7.73;67.82;99104.59;4291816;33;33393;-84
2021/01/05 06:25:34;;;;;;;43.92;23.70;;;;;;;7.88;67.46;99106.59;4296886;33;34288;-84
2021/01/05 06:28:02;;;;;;;43.38;22.73;;;;;;;8.07;66.87;99108.38;4296648;33;34403;-83
2021/01/05 06:30:29;;;;;;;44.70;23.20;;;;;;;8.16;66.33;99118.47;4295154;33;34111;-83
2021/01/05 06:32:57;;;;;;;45.83;24.12;;;;;;;7.95;66.86;99115.91;4309541;33;33713;-83
2021/01/05 06:35:25;;;;;;;46.67;22.83;;;;;;;7.86;67.35;99121.56;4316419;32;34123;-83
2021/01/05 06:37:53;;;;;;;47.22;22.67;;;;;;;7.66;67.58;99126.81;4360101;32;34487;-83
2021/01/05 06:40:25;;;;;;;38.17;20.75;;;;;;;7.68;67.73;99123.19;4359956;32;33582;-84
2021/01/05 06:42:52;;;;;;;42.75;21.85;;;;;;;7.16;69.19;99133.22;4342075;33;35526;-84
2021/01/05 06:45:23;;;;;;;47.83;23.52;;;;;;;7.40;68.54;99126.13;4338694;32;33391;-83
2021/01/05 06:47:52;;;;;;;44.25;22.33;;;;;;;7.29;68.67;99138.84;4336486;32;33663;-83
2021/01/05 06:50:21;;;;;;;42.47;22.23;;;;;;;7.37;68.17;99136.78;4346693;33;34551;-84
2021/01/05 06:52:48;;;;;;;40.78;21.58;;;;;;;7.48;68.17;99135.47;4353580;32;33428;-84
2021/01/05 06:55:17;;;;;;;39.92;22.13;;;;;;;7.40;68.25;99136.62;4352607;32;33742;-84
2021/01/05 06:57:45;;;;;;;44.53;22.30;;;;;;;7.21;69.01;99135.66;4340300;32;33764;-83
2021/01/05 07:00:19;;;;;;;44.88;23.33;;;;;;;7.50;67.86;99137.13;4335585;32;33930;-84
2021/01/05 07:02:51;;;;;;;45.30;22.42;;;;;;;7.68;67.51;99130.22;4334208;32;34749;-83
2021/01/05 07:05:19;;;;;;;42.03;20.43;;;;;;;7.15;69.08;99146.44;4339385;32;34266;-83
2021/01/05 07:07:46;;;;;;;44.40;22.00;;;;;;;7.45;67.85;99136.44;4334015;33;33585;-83
2021/01/05 07:10:15;;;;;;;41.37;21.55;;;;;;;7.36;68.24;99139.47;4332956;33;34569;-83
2021/01/05 07:12:44;;;;;;;43.53;21.62;;;;;;;7.58;67.47;99136.78;4341772;32;33562;-83
2021/01/05 07:15:13;;;;;;;43.42;22.25;;;;;;;7.39;68.08;99141.94;4335262;33;33727;-83
2021/01/05 07:17:41;;;;;;;44.65;21.77;;;;;;;7.09;69.06;99151.94;4325545;33;32443;-83
2021/01/05 07:20:09;;;;;;;44.25;23.42;;;;;;;7.37;68.20;99154.31;4329817;33;33685;-84
2021/01/05 07:22:36;;;;;;;44.33;22.73;;;;;;;7.46;67.86;99145.19;4321455;33;34396;-90
2021/01/05 07:25:06;;;;;;;47.10;22.65;;;;;;;7.67;67.35;99157.41;4327567;33;36591;-89
2021/01/05 07:27:33;;;;;;;44.45;22.00;;;;;;;7.57;67.46;99158.72;4334458;33;33166;-84
2021/01/05 07:30:00;;;;;;;39.15;20.05;;;;;;;7.69;67.36;99166.97;4328255;33;34059;-84
2021/01/05 07:32:28;;;;;;;37.85;18.80;;;;;;;7.30;68.30;99172.06;4317497;32;34809;-84
2021/01/05 07:34:55;;;;;;;35.15;19.02;;;;;;;7.27;68.39;99168.72;4316359;33;34616;-84
2021/01/05 07:37:28;;;;;;;34.63;16.90;;;;;;;7.33;67.93;99171.09;4328478;33;33907;-84
2021/01/05 07:39:57;;;;;;;39.97;19.58;;;;;;;7.37;67.52;99164.81;4326660;32;33761;-84
2021/01/05 07:42:26;;;;;;;34.72;17.92;;;;;;;7.19;68.03;99169.87;4324719;33;33772;-84
2021/01/05 07:44:56;;;;;;;33.22;18.48;;;;;;;7.42;67.66;99160.22;4339438;33;33916;-84
2021/01/05 07:47:26;;;;;;;32.10;17.92;;;;;;;7.60;67.05;99171.75;4336169;33;33245;-84
2021/01/05 07:49:54;;;;;;;35.58;18.17;;;;;;;7.47;67.21;99170.53;4323292;32;34062;-84
2021/01/05 07:52:32;;;;;;;36.72;19.40;;;;;;;7.59;66.92;99175.28;4338626;32;33748;-84
2021/01/05 07:55:02;;;;;;;39.72;18.92;;;;;;;7.74;66.32;99179.03;4323885;33;33529;-83
2021/01/05 07:57:29;;;;;;;37.38;18.50;;;;;;;7.43;67.24;99180.31;4334562;33;33106;-84
2021/01/05 07:59:56;;;;;;;36.75;16.83;;;;;;;7.35;67.51;99185.00;4330037;33;34813;-83
2021/01/05 08:02:24;;;;;;;37.72;18.83;;;;;;;7.60;66.72;99169.13;4329530;33;33495;-84
2021/01/05 08:04:52;;;;;;;35.97;18.52;;;;;;;7.36;67.57;99178.87;4331331;33;34126;-83
2021/01/05 08:07:20;;;;;;;39.95;19.05;;;;;;;7.31;67.74;99171.16;4317584;33;34243;-83
2021/01/05 08:09:47;;;;;;;36.38;18.30;;;;;;;7.43;67.63;99181.16;4316167;33;34062;-88
2021/01/05 08:12:16;;;;;;;43.60;19.77;;;;;;;7.25;68.44;99181.91;4321491;33;35443;-86
2021/01/05 08:14:44;;;;;;;39.78;20.75;;;;;;;7.21;68.83;99185.56;4325457;32;35100;-84
2021/01/05 08:17:11;;;;;;;42.35;19.23;;;;;;;7.48;67.71;99182.75;4317139;33;34554;-84
2021/01/05 08:19:43;;;;;;;36.30;19.12;;;;;;;7.51;67.47;99182.62;4327354;33;33667;-84
2021/01/05 08:22:11;;;;;;;40.00;19.15;;;;;;;7.30;68.22;99181.72;4337720;32;34223;-84
2021/01/05 08:24:39;;;;;;;36.85;19.08;;;;;;;7.57;67.46;99177.97;4331578;33;33740;-84
2021/01/05 08:27:08;;;;;;;41.42;22.37;;;;;;;7.39;67.87;99184.81;4316981;33;34706;-83
2021/01/05 08:29:36;;;;;;;40.10;20.40;;;;;;;7.42;68.30;99187.34;4332799;32;34530;-84
2021/01/05 08:32:05;;;;;;;35.88;18.05;;;;;;;7.44;67.51;99182.88;4343019;32;33767;-84
2021/01/05 08:34:32;;;;;;;38.25;20.50;;;;;;;7.56;67.29;99186.78;4331674;33;35333;-84
2021/01/05 08:37:01;;;;;;;36.13;18.40;;;;;;;7.53;67.52;99192.16;4320079;33;33116;-84
2021/01/05 08:39:29;;;;;;;38.22;20.05;;;;;;;7.80;66.40;99195.41;4337607;33;35239;-84
2021/01/05 08:41:56;;;;;;;38.08;20.70;;;;;;;7.69;66.86;99193.25;4304632;33;33038;-91
2021/01/05 08:44:24;;;;;;;38.20;20.08;;;;;;;7.65;67.14;99196.06;4302743;33;35380;-83
2021/01/05 08:46:59;;;;;;;39.83;20.12;;;;;;;7.21;68.91;99201.31;4323660;33;35843;-83
2021/01/05 08:49:28;;;;;;;39.17;19.42;;;;;;;7.72;67.10;99204.53;4323382;33;35468;-83
2021/01/05 08:51:56;;;;;;;43.40;20.17;;;;;;;7.93;66.42;99203.66;4329504;33;35294;-84
2021/01/05 08:54:24;;;;;;;42.17;19.73;;;;;;;7.56;67.90;99212.19;4328743;33;34960;-83
2021/01/05 08:56:53;;;;;;;40.08;19.98;;;;;;;8.03;65.97;99206.75;4327068;33;33820;-84
2021/01/05 08:59:21;;;;;;;38.22;19.40;;;;;;;7.82;66.89;99209.31;4319231;33;34785;-84
2021/01/05 09:01:49;;;;;;;40.45;20.52;;;;;;;7.54;67.56;99208.75;4326494;33;34395;-84
2021/01/05 09:04:16;;;;;;;44.65;21.17;;;;;;;7.81;66.85;99212.88;4326110;33;35956;-83
2021/01/05 09:06:48;;;;;;;38.17;19.95;;;;;;;7.61;67.45;99207.59;4324232;33;33325;-83
2021/01/05 09:09:16;;;;;;;31.92;16.87;;;;;;;7.74;66.82;99214.06;4312116;33;35501;-84
2021/01/05 09:11:50;;;;;;;33.05;17.48;;;;;;;7.86;66.07;99205.66;4325138;33;33722;-83
2021/01/05 09:14:18;;;;;;;29.85;16.27;;;;;;;7.83;65.94;99216.31;4327118;33;33518;-83
2021/01/05 09:16:45;;;;;;;36.90;18.02;;;;;;;7.56;67.08;99214.81;4334820;32;31263;-83
2021/01/05 09:19:13;;;;;;;28.62;17.85;;;;;;;7.18;68.19;99217.22;4334135;33;33680;-83
2021/01/05 09:21:46;;;;;;;33.40;17.25;;;;;;;7.27;68.03;99224.72;4331928;32;33727;-84
2021/01/05 09:24:16;;;;;;;27.98;15.57;;;;;;;6.97;69.36;99233.78;4327882;33;33653;-83
2021/01/05 09:26:43;;;;;;;23.33;14.85;;;;;;;7.16;68.27;99232.16;4333368;33;34451;-85
2021/01/05 09:29:12;;;;;;;28.90;14.60;;;;;;;7.16;68.17;99230.38;4333840;33;33653;-86
2021/01/05 09:31:41;;;;;;;29.42;16.60;;;;;;;7.42;67.41;99229.38;4329189;32;34992;-86
2021/01/05 09:34:09;;;;;;;27.33;15.55;;;;;;;7.51;66.96;99229.91;4338599;32;35247;-86
2021/01/05 09:36:37;;;;;;;30.58;16.17;;;;;;;7.53;66.88;99222.81;4331376;33;31560;-86
2021/01/05 09:39:07;;;;;;;30.50;17.55;;;;;;;7.56;66.99;99238.47;4346899;32;33397;-86
2021/01/05 09:41:40;;;;;;;32.65;17.92;;;;;;;7.61;66.96;99239.13;4336654;33;33460;-86
2021/01/05 09:44:09;;;;;;;30.50;16.92;;;;;;;7.41;68.01;99246.03;4321320;32;33871;-86
2021/01/05 09:46:39;;;;;;;30.15;17.20;;;;;;;7.74;66.98;99242.09;4319876;33;33907;-86
2021/01/05 09:49:07;;;;;;;34.28;18.48;;;;;;;7.78;66.50;99244.53;4330971;32;34248;-86
2021/01/05 09:51:34;;;;;;;37.92;21.77;;;;;;;7.42;67.73;99246.91;4345244;32;34297;-86
2021/01/05 09:54:13;;;;;;;61.55;37.72;;;;;;;7.54;67.15;99237.66;4337591;32;33774;-86
2021/01/05 09:56:41;;;;;;;44.03;26.67;;;;;;;7.58;66.97;99242.72;4337307;32;32757;-86
2021/01/05 09:59:08;;;;;;;31.67;20.10;;;;;;;7.19;68.69;99250.41;4333309;32;32905;-86
2021/01/05 10:01:35;;;;;;;30.12;19.05;;;;;;;7.49;68.00;99242.25;4332560;32;33252;-85
2021/01/05 10:04:03;;;;;;;26.12;17.05;;;;;;;7.52;67.21;99242.12;4335220;32;34735;-86
2021/01/05 10:06:33;;;;;;;31.77;17.25;;;;;;;7.60;67.00;99235.66;4327698;32;32957;-86
2021/01/05 10:09:08;;;;;;;28.80;16.20;;;;;;;8.01;66.07;99234.84;4324326;32;34225;-86
2021/01/05 10:11:40;;;;;;;29.52;16.85;;;;;;;8.13;65.63;99236.97;4334011;33;34970;-86
2021/01/05 10:14:07;;;;;;;28.58;17.75;;;;;;;7.71;66.54;99248.34;4335952;32;31475;-83
2021/01/05 10:16:34;;;;;;;26.87;15.73;;;;;;;7.46;67.12;99237.97;4337666;32;33753;-83
2021/01/05 10:19:05;;;;;;;28.17;16.92;;;;;;;7.58;66.94;99234.00;4329813;33;33398;-82
2021/01/05 10:21:34;;;;;;;24.63;14.45;;;;;;;7.43;67.08;99232.84;4323681;32;34005;-91
2021/01/05 10:24:02;;;;;;;24.27;14.07;;;;;;;7.56;66.50;99233.22;4333599;32;33527;-88
2021/01/05 10:26:31;;;;;;;25.77;15.80;;;;;;;7.65;66.37;99222.34;4318494;33;34293;-88
2021/01/05 10:28:58;;;;;;;27.20;15.68;;;;;;;7.20;67.88;99231.13;4312815;33;35101;-84
2021/01/05 10:31:26;;;;;;;24.63;14.02;;;;;;;7.66;66.92;99227.50;4333518;33;33599;-84
2021/01/05 10:33:53;;;;;;;27.48;15.45;;;;;;;7.70;66.23;99230.87;4338044;33;33508;-84
2021/01/05 10:36:21;;;;;;;25.33;15.13;;;;;;;7.73;66.27;99225.47;4313959;32;33852;-84
2021/01/05 10:39:06;;;;;;;28.65;16.65;;;;;;;7.67;66.50;99234.47;4334156;32;33587;-83
2021/01/05 10:41:39;;;;;;;23.73;14.95;;;;;;;8.04;64.95;99218.97;4312723;33;34611;-83
2021/01/05 10:44:07;;;;;;;28.12;15.38;;;;;;;7.90;65.65;99230.06;4341257;32;34234;-90
2021/01/05 10:46:35;;;;;;;25.55;15.18;;;;;;;7.52;66.44;99232.47;4323951;33;31816;-88
2021/01/05 10:49:03;;;;;;;24.85;14.23;;;;;;;7.95;65.94;99223.66;4332337;33;33437;-89
2021/01/05 10:51:31;;;;;;;27.90;15.60;;;;;;;8.19;65.07;99224.41;4313611;33;35057;-88
2021/01/05 10:53:58;;;;;;;25.23;15.23;;;;;;;8.01;65.79;99224.34;4334568;33;32231;-89
2021/01/05 10:56:26;;;;;;;23.00;15.18;;;;;;;8.24;64.59;99216.31;4323234;32;33791;-89
2021/01/05 10:58:54;;;;;;;24.20;14.57;;;;;;;8.19;64.30;99228.81;4337243;33;33190;-88
2021/01/05 11:01:21;;;;;;;21.67;13.18;;;;;;;8.20;64.90;99225.25;4349177;32;34702;-84
2021/01/05 11:03:49;;;;;;;20.55;13.30;;;;;;;8.33;63.40;99230.84;4336421;33;33396;-83
2021/01/05 11:06:16;;;;;;;18.98;12.80;;;;;;;8.31;63.45;99237.94;4349203;32;33201;-83
2021/01/05 11:08:44;;;;;;;21.98;14.23;;;;;;;8.41;63.68;99224.37;4337763;32;34365;-83
2021/01/05 11:11:17;;;;;;;18.77;12.98;;;;;;;8.16;64.58;99234.19;4321550;32;33933;-84
2021/01/05 11:13:45;;;;;;;22.33;13.25;;;;;;;8.10;64.22;99234.47;4328113;32;34430;-83
2021/01/05 11:16:13;;;;;;;22.87;12.35;;;;;;;8.11;64.43;99236.16;4326449;32;33898;-83
2021/01/05 11:18:41;;;;;;;24.85;13.02;;;;;;;7.91;65.84;99224.72;4347947;32;37771;-83
2021/01/05 11:21:11;;;;;;;23.02;13.75;;;;;;;8.42;64.17;99231.31;4336701;32;35755;-83
2021/01/05 11:23:40;;;;;;;19.15;12.48;;;;;;;8.41;63.95;99229.63;4342475;32;33565;-83
2021/01/05 11:26:12;;;;;;;19.00;12.40;;;;;;;8.00;65.11;99243.66;4347235;32;33031;-83
2021/01/05 11:28:51;;;;;;;20.73;13.35;;;;;;;8.20;64.59;99243.66;4328871;32;34031;-82
2021/01/05 11:31:19;;;;;;;24.52;13.40;;;;;;;7.99;65.17;99241.97;4325689;32;34242;-84
2021/01/05 11:33:47;;;;;;;20.58;13.27;;;;;;;8.41;63.93;99248.03;4334150;32;33435;-83
2021/01/05 11:36:22;;;;;;;24.27;14.35;;;;;;;8.42;63.31;99238.37;4346747;32;32676;-83
2021/01/05 11:38:50;;;;;;;23.20;13.95;;;;;;;8.53;62.79;99240.53;4358556;32;33622;-83
2021/01/05 11:41:32;;;;;;;18.87;11.93;;;;;;;7.85;65.62;99246.00;4327734;32;33486;-83
2021/01/05 11:44:00;;;;;;;19.52;11.70;;;;;;;8.48;63.01;99234.59;4337349;32;33298;-83
2021/01/05 11:46:27;;;;;;;18.85;11.88;;;;;;;8.37;63.16;99243.84;4333600;32;35265;-83
2021/01/05 11:48:56;;;;;;;21.60;12.57;;;;;;;7.89;64.00;99241.50;4338488;32;34498;-83
2021/01/05 11:51:27;;;;;;;18.77;12.60;;;;;;;8.38;62.79;99237.66;4342475;32;34200;-83
2021/01/05 11:53:55;;;;;;;17.48;11.52;;;;;;;8.63;62.26;99239.19;4342729;32;33631;-83